createdAt,value
2022-11-10T00:00:57.203Z,2.50
2022-11-10T00:03:24.757Z,2.90
2022-11-10T00:05:51.339Z,3.03
2022-11-10T00:08:17.922Z,2.73
2022-11-10T00:11:01.375Z,2.90
2022-11-10T00:13:32.988Z,3.13
2022-11-10T00:16:36.810Z,2.37
2022-11-10T00:19:03.453Z,3.67
2022-11-10T00:21:29.940Z,3.50
2022-11-10T00:23:56.417Z,2.43
2022-11-10T00:26:23.377Z,2.73
2022-11-10T00:28:49.912Z,2.90
2022-11-10T00:31:16.484Z,2.73
2022-11-10T00:33:44.214Z,2.63
2022-11-10T00:36:11.351Z,2.50
2022-11-10T00:38:37.987Z,2.40
2022-11-10T00:41:04.730Z,3.00
2022-11-10T00:43:31.668Z,2.77
2022-11-10T00:45:58.593Z,2.83
2022-11-10T00:48:25.369Z,2.60
2022-11-10T00:50:51.937Z,3.23
2022-11-10T00:53:19.111Z,2.73
2022-11-10T00:55:45.938Z,2.30
2022-11-10T00:58:12.461Z,2.67
2022-11-10T01:00:39.150Z,2.87
2022-11-10T01:03:05.984Z,2.60
2022-11-10T01:05:36.642Z,2.47
2022-11-10T01:08:03.461Z,3.10
2022-11-10T01:10:30.103Z,2.90
2022-11-10T01:12:56.654Z,2.87
2022-11-10T01:15:27.506Z,2.97
2022-11-10T01:17:55.772Z,2.77
2022-11-10T01:20:23.227Z,3.13
2022-11-10T01:22:49.815Z,2.63
2022-11-10T01:25:16.330Z,3.63
2022-11-10T01:27:42.771Z,2.47
2022-11-10T01:30:09.715Z,2.43
2022-11-10T01:32:36.213Z,2.77
2022-11-10T01:35:02.882Z,2.97
2022-11-10T01:37:29.399Z,2.70
2022-11-10T01:39:55.938Z,2.90
2022-11-10T01:42:44.264Z,2.63
2022-11-10T01:45:22.961Z,2.77
2022-11-10T01:47:58.258Z,2.87
2022-11-10T01:50:26.545Z,2.80
2022-11-10T01:52:57.336Z,2.43
2022-11-10T01:55:24.804Z,2.57
2022-11-10T01:57:51.652Z,2.97
2022-11-10T02:00:19.208Z,2.67
2022-11-10T02:03:12.354Z,3.00
2022-11-10T02:05:39.119Z,2.70
2022-11-10T02:08:05.845Z,2.70
2022-11-10T02:10:32.387Z,2.60
2022-11-10T02:12:58.931Z,3.00
2022-11-10T02:15:25.630Z,3.07
2022-11-10T02:17:52.364Z,2.97
2022-11-10T02:20:20.689Z,2.70
2022-11-10T02:22:47.229Z,3.20
2022-11-10T02:25:21.608Z,2.87
2022-11-10T02:27:48.415Z,2.77
2022-11-10T02:30:16.169Z,3.17
2022-11-10T02:32:42.715Z,3.70
2022-11-10T02:35:09.716Z,2.53
2022-11-10T02:37:36.292Z,2.77
2022-11-10T02:40:03.578Z,3.07
2022-11-10T02:42:30.447Z,3.03
2022-11-10T02:44:57.355Z,2.73
2022-11-10T02:47:23.932Z,3.27
2022-11-10T02:49:50.484Z,2.80
2022-11-10T02:52:17.156Z,3.13
2022-11-10T02:54:43.619Z,3.10
2022-11-10T02:57:10.079Z,3.10
2022-11-10T02:59:36.579Z,2.83
2022-11-10T03:02:03.100Z,2.93
2022-11-10T03:04:29.685Z,2.60
2022-11-10T03:06:56.167Z,2.50
2022-11-10T03:09:22.740Z,2.57
2022-11-10T03:11:49.201Z,2.93
2022-11-10T03:14:15.708Z,2.93
2022-11-10T03:16:42.396Z,3.27
2022-11-10T03:19:08.955Z,2.67
2022-11-10T03:21:35.432Z,2.87
2022-11-10T03:24:02.208Z,3.40
2022-11-10T03:26:28.816Z,2.63
2022-11-10T03:28:55.286Z,3.20
2022-11-10T03:31:21.772Z,3.10
2022-11-10T03:33:48.358Z,3.27
2022-11-10T03:36:14.875Z,3.13
2022-11-10T03:38:41.332Z,3.00
2022-11-10T03:41:23.334Z,2.63
2022-11-10T03:43:50.137Z,2.63
2022-11-10T03:46:17.092Z,3.17
2022-11-10T03:48:46.308Z,2.80
2022-11-10T03:51:17.055Z,2.80
2022-11-10T03:53:43.675Z,3.13
2022-11-10T03:56:10.177Z,3.43
2022-11-10T03:58:36.988Z,3.57
2022-11-10T04:01:03.535Z,3.50
2022-11-10T04:03:30.037Z,3.20
2022-11-10T04:06:15.432Z,3.33
2022-11-10T04:09:07.894Z,3.10
2022-11-10T04:11:53.291Z,2.67
2022-11-10T04:14:38.589Z,2.70
2022-11-10T04:17:05.205Z,2.77
2022-11-10T04:19:31.868Z,3.07
2022-11-10T04:21:58.392Z,3.00
2022-11-10T04:24:25.047Z,2.87
2022-11-10T04:26:51.771Z,2.87
2022-11-10T04:29:19.965Z,3.33
2022-11-10T04:31:46.606Z,2.93
2022-11-10T04:34:14.724Z,3.43
2022-11-10T04:36:42.966Z,2.93
2022-11-10T04:39:10.428Z,3.43
2022-11-10T04:41:36.981Z,3.60
2022-11-10T04:44:03.548Z,3.47
2022-11-10T04:46:35.138Z,3.20
2022-11-10T04:49:02.226Z,2.93
2022-11-10T04:51:31.816Z,2.70
2022-11-10T04:53:58.834Z,3.03
2022-11-10T04:56:26.310Z,3.57
2022-11-10T04:58:53.538Z,3.83
2022-11-10T05:01:22.417Z,3.93
2022-11-10T05:03:50.288Z,3.00
2022-11-10T05:06:17.270Z,2.83
2022-11-10T05:08:45.234Z,3.27
2022-11-10T05:11:12.264Z,3.27
2022-11-10T05:13:39.491Z,3.17
2022-11-10T05:16:06.811Z,2.97
2022-11-10T05:18:33.535Z,3.30
2022-11-10T05:21:00.100Z,3.87
2022-11-10T05:23:39.032Z,3.00
2022-11-10T05:26:13.886Z,3.23
2022-11-10T05:28:42.116Z,3.10
2022-11-10T05:31:08.929Z,3.23
2022-11-10T05:33:36.520Z,3.40
2022-11-10T05:36:03.316Z,2.93
2022-11-10T05:38:29.796Z,3.30
2022-11-10T05:40:56.431Z,3.63
2022-11-10T05:43:23.772Z,3.47
2022-11-10T05:45:50.670Z,3.53
2022-11-10T05:48:17.202Z,3.13
2022-11-10T05:50:43.998Z,2.87
2022-11-10T05:53:10.636Z,3.07
2022-11-10T05:55:37.469Z,3.03
2022-11-10T05:58:04.286Z,3.13
2022-11-10T06:00:32.212Z,3.60
2022-11-10T06:03:06.057Z,3.67
2022-11-10T06:05:35.301Z,3.70
2022-11-10T06:08:04.011Z,3.40
2022-11-10T06:10:31.147Z,4.10
2022-11-10T06:13:00.797Z,3.47
2022-11-10T06:15:28.058Z,3.27
2022-11-10T06:17:56.599Z,4.27
2022-11-10T06:20:23.684Z,3.73
2022-11-10T06:22:59.684Z,3.60
2022-11-10T06:25:26.519Z,3.43
2022-11-10T06:27:53.574Z,3.47
2022-11-10T06:30:20.109Z,3.00
2022-11-10T06:32:46.761Z,3.90
2022-11-10T06:35:13.227Z,3.37
2022-11-10T06:37:39.800Z,4.17
2022-11-10T06:40:07.786Z,3.83
2022-11-10T06:42:34.945Z,3.87
2022-11-10T06:45:02.099Z,3.67
2022-11-10T06:47:29.708Z,3.33
2022-11-10T06:49:56.422Z,3.93
2022-11-10T06:52:22.992Z,3.77
2022-11-10T06:54:49.483Z,3.27
2022-11-10T06:57:16.119Z,4.13
2022-11-10T06:59:42.656Z,3.30
2022-11-10T07:02:15.933Z,3.27
2022-11-10T07:04:42.858Z,4.17
2022-11-10T07:07:10.682Z,3.70
2022-11-10T07:09:37.863Z,3.33
2022-11-10T07:12:05.284Z,3.27
2022-11-10T07:14:31.894Z,3.83
2022-11-10T07:16:58.680Z,3.70
2022-11-10T07:19:25.184Z,4.17
2022-11-10T07:21:51.875Z,3.60
2022-11-10T07:24:18.473Z,3.53
2022-11-10T07:26:45.488Z,4.00
2022-11-10T07:29:12.005Z,3.97
2022-11-10T07:31:38.711Z,3.40
2022-11-10T07:34:05.786Z,3.30
2022-11-10T07:36:32.505Z,3.13
2022-11-10T07:38:59.228Z,4.03
2022-11-10T07:41:25.735Z,3.70
2022-11-10T07:43:52.384Z,3.37
2022-11-10T07:46:18.965Z,3.57
2022-11-10T07:48:45.455Z,3.03
2022-11-10T07:51:12.085Z,3.63
2022-11-10T07:53:39.957Z,3.10
2022-11-10T07:56:06.898Z,4.50
2022-11-10T07:58:34.256Z,3.10
2022-11-10T08:01:01.084Z,4.13
2022-11-10T08:03:27.573Z,3.83
2022-11-10T08:05:54.198Z,3.23
2022-11-10T08:08:20.679Z,3.50
2022-11-10T08:10:47.205Z,3.50
2022-11-10T08:13:14.534Z,2.93
2022-11-10T08:15:41.558Z,3.20
2022-11-10T08:18:16.099Z,3.40
2022-11-10T08:20:42.776Z,3.00
2022-11-10T08:23:09.674Z,4.00
2022-11-10T08:25:37.486Z,3.67
2022-11-10T08:28:12.280Z,3.20
2022-11-10T08:30:40.215Z,4.17
2022-11-10T08:33:09.018Z,3.40
2022-11-10T08:35:37.888Z,3.20
2022-11-10T08:38:14.641Z,3.20
2022-11-10T08:40:41.703Z,3.23
2022-11-10T08:43:08.660Z,3.37
2022-11-10T08:45:36.613Z,3.50
2022-11-10T08:48:21.635Z,4.10
2022-11-10T08:50:49.777Z,3.37
2022-11-10T08:53:18.425Z,3.30
2022-11-10T08:55:46.792Z,4.00
2022-11-10T08:58:15.718Z,3.63
2022-11-10T09:00:42.724Z,3.03
2022-11-10T09:03:12.193Z,3.60
2022-11-10T09:05:38.683Z,3.43
2022-11-10T09:08:05.794Z,3.20
2022-11-10T09:10:34.389Z,3.90
2022-11-10T09:13:02.688Z,4.03
2022-11-10T09:15:30.509Z,3.43
2022-11-10T09:18:01.548Z,3.90
2022-11-10T09:20:29.607Z,3.50
2022-11-10T09:22:56.751Z,4.03
2022-11-10T09:25:23.523Z,3.80
2022-11-10T09:27:50.170Z,3.73
2022-11-10T09:30:18.125Z,4.27
2022-11-10T09:32:46.862Z,3.93
2022-11-10T09:35:13.821Z,3.93
2022-11-10T09:37:40.667Z,3.93
2022-11-10T09:40:13.212Z,3.70
2022-11-10T09:42:40.827Z,4.13
2022-11-10T09:45:16.569Z,3.87
2022-11-10T09:47:57.313Z,3.50
2022-11-10T09:50:40.911Z,3.40
2022-11-10T09:53:15.732Z,3.73
2022-11-10T09:56:16.656Z,3.30
2022-11-10T09:58:45.490Z,3.33
2022-11-10T10:01:21.138Z,3.37
2022-11-10T10:03:52.226Z,3.60
2022-11-10T10:06:20.272Z,3.13
2022-11-10T10:09:16.142Z,3.23
2022-11-10T10:11:54.669Z,3.03
2022-11-10T10:14:32.321Z,3.50
2022-11-10T10:17:38.339Z,3.73
2022-11-10T10:20:10.442Z,3.20
2022-11-10T10:22:43.078Z,3.63
2022-11-10T10:25:14.831Z,4.13
2022-11-10T10:27:42.403Z,3.53
2022-11-10T10:30:16.954Z,3.53
2022-11-10T10:32:43.565Z,3.40
2022-11-10T10:35:14.599Z,3.10
2022-11-10T10:37:48.917Z,3.50
2022-11-10T10:40:18.599Z,3.23
2022-11-10T10:42:45.393Z,3.30
2022-11-10T10:45:13.119Z,3.43
2022-11-10T10:47:40.275Z,3.57
2022-11-10T10:50:26.869Z,3.37
2022-11-10T10:53:17.105Z,3.90
2022-11-10T10:56:00.572Z,3.10
2022-11-10T10:58:27.423Z,3.30
2022-11-10T11:01:04.138Z,3.17
2022-11-10T11:03:30.707Z,3.30
2022-11-10T11:06:03.804Z,2.60
2022-11-10T11:08:30.291Z,3.17
2022-11-10T11:10:57.088Z,2.90
2022-11-10T11:13:26.215Z,3.57
2022-11-10T11:15:58.514Z,3.33
2022-11-10T11:18:27.166Z,3.30
2022-11-10T11:20:59.579Z,3.17
2022-11-10T11:23:29.202Z,3.33
2022-11-10T11:26:02.302Z,3.70
2022-11-10T11:28:41.432Z,3.77
2022-11-10T11:31:13.913Z,2.97
2022-11-10T11:33:49.462Z,2.90
2022-11-10T11:36:30.362Z,3.70
2022-11-10T11:39:15.868Z,3.63
2022-11-10T11:42:04.234Z,2.70
2022-11-10T11:45:12.512Z,3.50
2022-11-10T11:47:45.860Z,3.47
2022-11-10T11:50:29.654Z,3.27
2022-11-10T11:53:19.511Z,2.87
2022-11-10T11:56:15.375Z,3.03
2022-11-10T11:58:46.305Z,3.07
2022-11-10T12:01:15.689Z,2.50
2022-11-10T12:03:55.702Z,3.10
2022-11-10T12:06:50.314Z,2.83
2022-11-10T12:09:38.304Z,2.70
2022-11-10T12:12:21.969Z,3.10
2022-11-10T12:15:04.275Z,3.87
2022-11-10T12:17:55.167Z,3.00
2022-11-10T12:20:43.526Z,3.40
2022-11-10T12:23:21.670Z,3.33
2022-11-10T12:25:57.277Z,3.00
2022-11-10T12:28:28.535Z,2.73
2022-11-10T12:31:01.733Z,2.47
2022-11-10T12:33:47.099Z,2.70
2022-11-10T12:36:15.560Z,3.10
2022-11-10T12:38:47.973Z,2.50
2022-11-10T12:41:20.399Z,3.00
2022-11-10T12:44:08.084Z,2.83
2022-11-10T12:46:34.924Z,2.83
2022-11-10T12:49:11.597Z,2.37
2022-11-10T12:52:03.114Z,3.40
2022-11-10T12:54:29.794Z,2.93
2022-11-10T12:57:01.322Z,3.60
2022-11-10T12:59:31.457Z,2.67
2022-11-10T13:02:02.909Z,2.20
2022-11-10T13:04:30.141Z,2.50
2022-11-10T13:07:02.652Z,2.33
2022-11-10T13:09:32.324Z,2.47
2022-11-10T13:12:20.380Z,2.60
2022-11-10T13:14:47.626Z,2.50
2022-11-10T13:17:26.477Z,2.40
2022-11-10T13:19:54.678Z,2.73
2022-11-10T13:22:43.058Z,2.30
2022-11-10T13:25:37.709Z,2.57
2022-11-10T13:28:05.567Z,1.97
2022-11-10T13:30:45.534Z,2.30
2022-11-10T13:33:36.128Z,2.20
2022-11-10T13:36:02.997Z,1.87
2022-11-10T13:38:32.648Z,2.37
2022-11-10T13:41:17.274Z,2.10
2022-11-10T13:43:54.561Z,1.83
2022-11-10T13:46:35.747Z,2.37
2022-11-10T13:49:16.451Z,2.50
2022-11-10T13:51:50.677Z,2.13
2022-11-10T13:54:39.272Z,2.10
2022-11-10T13:57:14.937Z,1.90
2022-11-10T14:00:01.831Z,1.97
2022-11-10T14:02:34.672Z,2.20
2022-11-10T14:05:02.313Z,1.90
2022-11-10T14:07:30.827Z,1.80
2022-11-10T14:10:05.190Z,2.13
2022-11-10T14:12:43.302Z,1.87
2022-11-10T14:15:13.661Z,2.43
2022-11-10T14:17:47.382Z,1.80
2022-11-10T14:20:44.087Z,2.10
2022-11-10T14:23:21.986Z,1.90
2022-11-10T14:25:55.978Z,1.67
2022-11-10T14:28:34.423Z,1.90
2022-11-10T14:31:01.156Z,2.10
2022-11-10T14:33:28.403Z,2.33
2022-11-10T14:36:02.520Z,2.20
2022-11-10T14:38:33.860Z,1.97
2022-11-10T14:41:02.156Z,1.70
2022-11-10T14:43:39.106Z,1.80
2022-11-10T14:46:07.474Z,1.87
2022-11-10T14:48:36.729Z,2.13
2022-11-10T14:51:12.242Z,2.40
2022-11-10T14:53:40.856Z,1.87
2022-11-10T14:56:15.346Z,2.13
2022-11-10T14:58:42.989Z,1.90
2022-11-10T15:01:23.998Z,2.00
2022-11-10T15:03:50.826Z,2.10
2022-11-10T15:06:17.903Z,2.50
2022-11-10T15:08:44.408Z,2.17
2022-11-10T15:11:49.587Z,2.17
2022-11-10T15:14:39.539Z,2.00
2022-11-10T15:17:11.294Z,1.93
2022-11-10T15:19:58.079Z,2.00
2022-11-10T15:22:34.817Z,1.90
2022-11-10T15:25:17.471Z,2.00
2022-11-10T15:27:58.308Z,1.77
2022-11-10T15:30:26.088Z,1.87
2022-11-10T15:32:55.715Z,2.03
2022-11-10T15:35:31.102Z,2.40
2022-11-10T15:38:21.408Z,2.30
2022-11-10T15:40:50.136Z,2.20
2022-11-10T15:43:19.969Z,2.00
2022-11-10T15:45:49.758Z,1.90
2022-11-10T15:48:17.979Z,2.13
2022-11-10T15:50:46.900Z,2.30
2022-11-10T15:53:16.456Z,2.00
2022-11-10T15:55:44.574Z,2.33
2022-11-10T15:58:25.422Z,2.20
2022-11-10T16:00:52.567Z,2.80
2022-11-10T16:03:21.754Z,1.90
2022-11-10T16:05:48.603Z,2.30
2022-11-10T16:08:18.176Z,1.70
2022-11-10T16:10:47.689Z,2.30
2022-11-10T16:13:17.748Z,2.13
2022-11-10T16:15:45.727Z,2.10
2022-11-10T16:18:14.413Z,2.03
2022-11-10T16:20:41.125Z,2.00
2022-11-10T16:23:07.703Z,1.97
2022-11-10T16:25:35.006Z,2.30
2022-11-10T16:28:03.750Z,2.20
2022-11-10T16:30:30.718Z,2.10
2022-11-10T16:32:57.682Z,2.03
2022-11-10T16:35:24.318Z,1.93
2022-11-10T16:37:51.079Z,2.20
2022-11-10T16:40:20.364Z,2.33
2022-11-10T16:42:46.930Z,2.10
2022-11-10T16:45:19.175Z,2.60
2022-11-10T16:47:48.302Z,2.00
2022-11-10T16:50:30.486Z,2.40
2022-11-10T16:52:57.653Z,2.57
2022-11-10T16:55:24.342Z,2.17
2022-11-10T16:57:51.208Z,2.67
2022-11-10T17:00:18.453Z,2.80
2022-11-10T17:03:01.079Z,2.60
2022-11-10T17:05:28.255Z,2.43
2022-11-10T17:07:55.525Z,2.53
2022-11-10T17:10:22.405Z,2.87
2022-11-10T17:12:48.980Z,2.57
2022-11-10T17:15:16.297Z,2.17
2022-11-10T17:17:48.228Z,2.80
2022-11-10T17:20:30.167Z,2.87
2022-11-10T17:22:56.935Z,2.57
2022-11-10T17:25:26.518Z,2.70
2022-11-10T17:27:53.662Z,2.30
2022-11-10T17:30:21.232Z,2.67
2022-11-10T17:33:05.182Z,2.30
2022-11-10T17:35:37.581Z,2.60
2022-11-10T17:38:09.521Z,2.47
2022-11-10T17:40:36.347Z,2.43
2022-11-10T17:43:03.159Z,2.57
2022-11-10T17:45:32.566Z,2.57
2022-11-10T17:48:00.105Z,3.67
2022-11-10T17:50:26.796Z,4.00
2022-11-10T17:52:53.553Z,3.27
2022-11-10T17:55:28.491Z,2.80
2022-11-10T17:57:57.813Z,3.17
2022-11-10T18:00:25.126Z,3.90
2022-11-10T18:02:55.349Z,3.07
2022-11-10T18:05:22.306Z,2.90
2022-11-10T18:07:52.211Z,3.10
2022-11-10T18:10:18.831Z,3.57
2022-11-10T18:12:45.483Z,6.73
2022-11-10T18:15:13.960Z,3.77
2022-11-10T18:17:41.219Z,3.20
2022-11-10T18:20:11.810Z,3.17
2022-11-10T18:22:39.093Z,3.10
2022-11-10T18:25:06.789Z,3.20
2022-11-10T18:27:33.437Z,2.60
2022-11-10T18:30:00.138Z,2.93
2022-11-10T18:32:27.193Z,2.60
2022-11-10T18:34:54.034Z,2.73
2022-11-10T18:37:21.042Z,4.87
2022-11-10T18:39:47.516Z,3.03
2022-11-10T18:42:14.600Z,2.87
2022-11-10T18:44:41.455Z,2.97
2022-11-10T18:47:09.330Z,3.00
2022-11-10T18:49:35.984Z,2.70
2022-11-10T18:52:02.737Z,2.47
2022-11-10T18:54:29.539Z,3.47
2022-11-10T18:56:56.205Z,4.37
2022-11-10T18:59:22.786Z,2.87
2022-11-10T19:01:50.227Z,2.80
2022-11-10T19:04:17.037Z,2.93
2022-11-10T19:06:44.083Z,2.90
2022-11-10T19:09:11.392Z,3.03
2022-11-10T19:11:38.398Z,3.50
2022-11-10T19:14:05.381Z,3.17
2022-11-10T19:16:32.170Z,3.10
2022-11-10T19:18:58.676Z,3.50
2022-11-10T19:21:29.155Z,3.10
2022-11-10T19:23:56.992Z,3.37
2022-11-10T19:26:24.647Z,2.97
2022-11-10T19:28:53.322Z,3.03
2022-11-10T19:31:23.013Z,3.80
2022-11-10T19:33:52.717Z,3.00
2022-11-10T19:36:24.010Z,3.40
2022-11-10T19:38:51.142Z,2.93
2022-11-10T19:41:20.239Z,3.40
2022-11-10T19:43:47.792Z,3.23
2022-11-10T19:46:17.209Z,3.73
2022-11-10T19:48:44.575Z,3.63
2022-11-10T19:51:13.605Z,3.20
2022-11-10T19:53:41.270Z,3.00
2022-11-10T19:56:12.680Z,3.40
2022-11-10T19:58:39.982Z,3.07
2022-11-10T20:01:08.935Z,3.10
2022-11-10T20:03:35.685Z,2.87
2022-11-10T20:06:05.278Z,3.03
2022-11-10T20:08:32.031Z,3.67
2022-11-10T20:11:09.816Z,3.07
2022-11-10T20:13:36.636Z,2.97
2022-11-10T20:16:05.045Z,3.17
2022-11-10T20:18:31.781Z,2.80
2022-11-10T20:21:08.738Z,3.27
2022-11-10T20:23:35.591Z,3.17
2022-11-10T20:26:06.705Z,3.20
2022-11-10T20:28:35.835Z,3.43
2022-11-10T20:31:03.134Z,3.00
2022-11-10T20:33:31.382Z,3.03
2022-11-10T20:36:11.032Z,3.00
2022-11-10T20:38:40.090Z,2.80
2022-11-10T20:41:19.058Z,2.73
2022-11-10T20:43:46.489Z,2.80
2022-11-10T20:46:48.335Z,2.80
2022-11-10T20:49:07.515Z,2.87
2022-11-10T20:51:34.161Z,2.97
2022-11-10T20:54:01.389Z,2.73
2022-11-10T20:56:29.812Z,3.27
2022-11-10T20:58:57.719Z,3.10
2022-11-10T21:01:24.777Z,2.90
2022-11-10T21:03:51.565Z,2.83
2022-11-10T21:06:18.292Z,2.97
2022-11-10T21:08:44.801Z,2.93
2022-11-10T21:11:32.497Z,2.90
2022-11-10T21:13:59.619Z,3.00
2022-11-10T21:16:26.251Z,2.93
2022-11-10T21:18:55.890Z,2.97
2022-11-10T21:21:28.060Z,3.40
2022-11-10T21:23:57.445Z,3.10
2022-11-10T21:26:24.200Z,3.00
2022-11-10T21:28:50.766Z,2.93
2022-11-10T21:31:18.574Z,3.10
2022-11-10T21:33:45.077Z,3.30
2022-11-10T21:36:11.751Z,3.67
2022-11-10T21:38:38.505Z,3.10
2022-11-10T21:41:05.152Z,3.03
2022-11-10T21:43:31.905Z,2.90
2022-11-10T21:46:01.704Z,3.30
2022-11-10T21:48:28.213Z,3.20
2022-11-10T21:51:02.062Z,3.33
2022-11-10T21:53:28.890Z,3.30
2022-11-10T21:56:03.734Z,3.20
2022-11-10T21:58:30.483Z,3.13
2022-11-10T22:01:03.942Z,3.07
2022-11-10T22:03:30.762Z,3.30
2022-11-10T22:06:12.061Z,3.00
2022-11-10T22:08:39.955Z,2.90
2022-11-10T22:11:31.255Z,3.17
2022-11-10T22:14:16.167Z,3.40
2022-11-10T22:17:07.752Z,2.80
2022-11-10T22:19:35.471Z,2.87
2022-11-10T22:22:04.055Z,2.77
2022-11-10T22:24:30.956Z,2.80
2022-11-10T22:27:02.089Z,3.00
2022-11-10T22:29:31.906Z,3.00
2022-11-10T22:32:02.386Z,3.17
2022-11-10T22:34:28.928Z,2.97
2022-11-10T22:36:55.580Z,2.50
2022-11-10T22:39:22.245Z,3.10
2022-11-10T22:42:07.636Z,3.00
2022-11-10T22:44:34.275Z,2.93
2022-11-10T22:47:00.816Z,2.63
2022-11-10T22:49:27.336Z,2.67
2022-11-10T22:51:57.035Z,3.10
2022-11-10T22:54:23.930Z,2.40
2022-11-10T22:56:51.118Z,2.73
2022-11-10T22:59:18.614Z,2.77
2022-11-10T23:01:45.206Z,2.60
2022-11-10T23:04:12.170Z,2.57
2022-11-10T23:06:38.919Z,2.70
2022-11-10T23:09:06.341Z,2.53
2022-11-10T23:11:33.590Z,2.80
2022-11-10T23:14:00.575Z,2.80
2022-11-10T23:16:33.088Z,2.70
2022-11-10T23:18:59.713Z,3.10
2022-11-10T23:21:30.631Z,2.60
2022-11-10T23:23:57.388Z,2.43
2022-11-10T23:26:26.815Z,2.63
2022-11-10T23:28:53.580Z,2.67
2022-11-10T23:31:22.485Z,2.43
2022-11-10T23:33:51.754Z,2.60
2022-11-10T23:36:19.229Z,2.70
2022-11-10T23:38:47.165Z,2.63
2022-11-10T23:41:15.826Z,2.63
2022-11-10T23:43:42.514Z,3.10
2022-11-10T23:46:09.760Z,2.30
2022-11-10T23:48:37.398Z,2.60
2022-11-10T23:51:05.648Z,2.70
2022-11-10T23:53:32.549Z,2.33
2022-11-10T23:56:01.050Z,2.63
2022-11-10T23:58:28.265Z,2.50
